Time;durP1;ratioP1;P1;durP2;ratioP2;P2;SDS_P1;SDS_P2;PMS_P1;PMS_P2;Temp;Humidity;BMP_temperature;BMP_pressure;BME280_temperature;BME280_humidity;BME280_pressure;Samples;Min_cycle;Max_cycle;Signal;HPM_P1;HPM_P2
2021/10/23 00:01:45;;;;;;;4.45;2.00;;;7.30;64.80;;;6.71;50.10;95319.63;5016098;28;20224;-80
2021/10/23 00:04:13;;;;;;;4.47;1.85;;;7.40;65.00;;;6.80;50.42;95330.91;5016576;28;20228;-79
2021/10/23 00:06:40;;;;;;;4.70;2.10;;;7.30;65.00;;;6.85;50.25;95317.41;5030289;28;20231;-80
2021/10/23 00:09:07;;;;;;;4.78;1.77;;;7.40;65.10;;;7.01;50.03;95321.84;5035439;28;20197;-80
2021/10/23 00:11:35;;;;;;;6.03;2.20;;;7.50;65.20;;;7.09;50.11;95334.06;5052635;28;20236;-80
2021/10/23 00:14:02;;;;;;;4.80;1.90;;;7.50;66.10;;;7.19;50.19;95340.78;5036434;28;20188;-80
2021/10/23 00:16:29;;;;;;;2.53;1.60;;;7.70;65.50;;;7.26;50.25;95340.94;5031981;28;20230;-80
2021/10/23 00:18:56;;;;;;;4.65;2.00;;;7.70;65.30;;;7.35;50.05;95334.78;5049670;28;20211;-80
2021/10/23 00:21:23;;;;;;;4.38;1.98;;;7.80;65.30;;;7.41;49.88;95342.94;5048516;28;20334;-79
2021/10/23 00:23:51;;;;;;;3.25;1.70;;;7.80;65.30;;;7.45;49.96;95341.66;5019266;28;20204;-79
2021/10/23 00:26:18;;;;;;;3.63;2.10;;;7.90;65.20;;;7.47;50.53;95330.06;5035252;28;20230;-80
2021/10/23 00:28:45;;;;;;;5.50;1.90;;;7.90;65.20;;;7.53;49.89;95332.03;5052405;28;20184;-80
2021/10/23 00:31:12;;;;;;;4.07;2.33;;;8.00;65.10;;;7.55;50.18;95333.66;5034657;28;20228;-80
2021/10/23 00:33:39;;;;;;;3.60;1.88;;;8.00;65.20;;;7.59;50.53;95340.19;5052171;28;20613;-80
2021/10/23 00:36:07;;;;;;;4.97;2.20;;;8.10;65.30;;;7.60;50.83;95332.19;5048520;28;20698;-80
2021/10/23 00:38:34;;;;;;;6.05;2.47;;;8.10;65.60;;;7.69;50.96;95333.03;5048784;28;20307;-80
2021/10/23 00:41:03;;;;;;;4.15;2.20;;;8.30;65.70;;;7.72;50.80;95324.03;5034951;28;20212;-80
2021/10/23 00:43:30;;;;;;;5.53;2.20;;;8.20;65.60;;;7.79;50.21;95325.03;5053373;28;20685;-80
2021/10/23 00:45:57;;;;;;;6.35;1.88;;;8.30;65.60;;;7.85;50.62;95333.00;5051374;28;20188;-80
2021/10/23 00:48:25;;;;;;;5.63;2.10;;;8.30;65.50;;;7.85;50.85;95333.00;5031838;28;20205;-80
2021/10/23 00:50:52;;;;;;;3.10;1.85;;;8.40;65.70;;;7.93;50.42;95342.63;5048577;28;20197;-79
2021/10/23 00:53:22;;;;;;;4.28;2.10;;;8.40;65.60;;;7.99;50.34;95351.59;5048618;28;20200;-80
2021/10/23 00:55:50;;;;;;;6.55;2.10;;;8.40;65.60;;;8.02;50.61;95346.06;5048591;28;20181;-80
2021/10/23 00:58:17;;;;;;;6.35;2.17;;;8.50;65.60;;;8.04;50.02;95333.63;5016446;28;20236;-79
2021/10/23 01:00:46;;;;;;;4.65;2.20;;;8.50;65.40;;;8.09;50.27;95336.59;5015722;28;20262;-79
2021/10/23 01:03:14;;;;;;;2.70;1.92;;;8.60;65.50;;;8.10;50.17;95335.56;5015492;28;20255;-80
2021/10/23 01:05:43;;;;;;;5.28;2.00;;;8.60;65.40;;;8.08;50.29;95334.94;5062279;28;20200;-80
2021/10/23 01:08:10;;;;;;;5.15;2.50;;;8.60;65.40;;;8.06;50.46;95329.06;5034942;28;20225;-80
2021/10/23 01:10:39;;;;;;;5.88;2.72;;;8.70;65.60;;;8.07;50.49;95330.69;5033777;28;20628;-80
2021/10/23 01:13:06;;;;;;;6.47;2.22;;;8.70;65.40;;;8.05;51.09;95339.69;5051054;28;20199;-80
2021/10/23 01:15:35;;;;;;;7.45;2.20;;;8.70;65.60;;;8.06;50.86;95334.28;5031405;28;20196;-80
2021/10/23 01:18:07;;;;;;;4.55;2.00;;;8.70;65.60;;;8.06;50.79;95338.72;5015132;28;20244;-80
2021/10/23 01:20:35;;;;;;;3.75;2.03;;;8.70;65.60;;;8.05;50.69;95340.50;5029038;28;20726;-80
2021/10/23 01:23:03;;;;;;;5.93;2.17;;;8.80;66.50;;;8.06;50.58;95344.72;5050669;28;20242;-80
2021/10/23 01:25:32;;;;;;;4.43;2.17;;;8.70;65.60;;;8.06;50.92;95342.13;5047846;28;20287;-80
2021/10/23 01:28:03;;;;;;;5.80;2.28;;;8.70;65.70;;;8.08;51.19;95345.41;5031479;28;20634;-80
2021/10/23 01:30:31;;;;;;;5.85;2.50;;;8.70;65.90;;;8.08;51.47;95350.63;5008017;28;20185;-80
2021/10/23 01:32:59;;;;;;;3.80;2.22;;;8.70;65.90;;;8.04;51.29;95343.28;5023756;28;20241;-81
2021/10/23 01:35:27;;;;;;;5.10;2.30;;;8.70;66.10;;;8.08;51.40;95341.94;5031221;28;20208;-80
2021/10/23 01:37:55;;;;;;;5.15;2.30;;;8.70;66.00;;;8.08;51.08;95349.78;5064949;28;20231;-80
2021/10/23 01:40:28;;;;;;;5.40;2.60;;;8.70;66.00;;;8.07;51.14;95354.22;5014896;28;20224;-80
2021/10/23 01:42:56;;;;;;;3.33;2.00;;;8.70;66.10;;;8.12;51.18;95367.59;5014820;28;20232;-80
2021/10/23 01:45:24;;;;;;;4.80;2.00;;;8.70;66.10;;;8.13;51.38;95365.78;5047546;28;20287;-81
2021/10/23 01:47:51;;;;;;;3.10;2.05;;;8.80;66.20;;;8.16;51.31;95365.47;5010414;28;20685;-80
2021/10/23 01:50:22;;;;;;;4.18;2.10;;;8.70;66.00;;;8.15;51.17;95367.28;5034547;28;20196;-80
2021/10/23 01:52:53;;;;;;;4.47;2.78;;;8.70;66.10;;;8.14;51.98;95365.63;5050035;28;20748;-80
2021/10/23 01:55:21;;;;;;;5.18;2.35;;;8.70;66.30;;;8.16;51.40;95361.03;5034397;28;20283;-80
2021/10/23 01:57:48;;;;;;;4.43;2.30;;;8.70;66.30;;;8.18;51.53;95359.09;5050937;28;20211;-79
2021/10/23 02:00:17;;;;;;;5.60;2.58;;;8.70;66.20;;;8.17;51.75;95378.34;5034007;28;20222;-80
2021/10/23 02:02:45;;;;;;;5.20;2.50;;;8.80;66.40;;;8.20;51.75;95377.19;5064711;28;20251;-80
2021/10/23 02:05:13;;;;;;;5.07;2.40;;;8.80;66.40;;;8.23;51.75;95379.50;5040310;28;20196;-80
2021/10/23 02:07:40;;;;;;;5.93;2.35;;;8.80;66.40;;;8.27;51.34;95372.16;5030597;28;20220;-81
2021/10/23 02:10:09;;;;;;;6.10;2.50;;;8.80;66.30;;;8.30;51.52;95385.69;5041709;28;20679;-80
2021/10/23 02:12:36;;;;;;;4.90;2.80;;;8.80;66.40;;;8.30;51.99;95369.19;5033774;28;20259;-80
2021/10/23 02:15:05;;;;;;;4.85;2.42;;;8.90;66.60;;;8.29;52.24;95378.84;5034280;28;20196;-80
2021/10/23 02:17:33;;;;;;;3.63;2.20;;;8.90;66.80;;;8.29;52.34;95378.84;5034136;28;20247;-80
2021/10/23 02:20:03;;;;;;;6.28;2.42;;;8.90;67.60;;;8.30;52.16;95384.88;5048256;28;20280;-79
2021/10/23 02:22:30;;;;;;;5.75;2.45;;;8.90;66.80;;;8.29;52.04;95385.88;5016379;28;20223;-80
2021/10/23 02:24:57;;;;;;;5.85;2.33;;;8.90;66.70;;;8.27;51.77;95375.56;5014125;28;20274;-80
2021/10/23 02:27:24;;;;;;;5.10;2.35;;;8.90;66.60;;;8.28;51.86;95382.44;5014631;28;20207;-79
2021/10/23 02:29:52;;;;;;;6.70;2.38;;;8.90;66.50;;;8.28;52.05;95392.06;5046527;28;20736;-79
2021/10/23 02:32:20;;;;;;;6.00;2.65;;;8.90;66.60;;;8.30;51.72;95384.88;5030741;28;20212;-80
2021/10/23 02:34:47;;;;;;;4.90;2.20;;;8.90;66.70;;;8.32;51.97;95390.75;5030274;28;20215;-79
2021/10/23 02:37:14;;;;;;;4.30;2.45;;;8.90;66.60;;;8.31;51.71;95395.19;5022234;28;20547;-79
2021/10/23 02:39:41;;;;;;;4.20;2.28;;;8.90;66.60;;;8.34;51.93;95399.25;5070539;28;20220;-80
2021/10/23 02:42:08;;;;;;;5.78;2.40;;;9.00;66.70;;;8.36;52.13;95401.69;5022525;28;20217;-79
2021/10/23 02:44:36;;;;;;;5.53;2.72;;;8.90;66.70;;;8.37;51.92;95404.13;5021992;28;20661;-80
2021/10/23 02:47:03;;;;;;;4.35;2.45;;;8.90;66.70;;;8.36;51.88;95401.69;5047262;28;20216;-80
2021/10/23 02:49:30;;;;;;;5.80;2.42;;;9.00;66.80;;;8.40;51.97;95409.03;5055610;28;20463;-79
2021/10/23 02:51:57;;;;;;;3.42;2.03;;;9.00;66.80;;;8.44;51.95;95412.13;5012171;28;20239;-79
2021/10/23 02:54:24;;;;;;;5.15;2.65;;;8.90;66.70;;;8.41;51.78;95408.06;5031259;28;20287;-80
2021/10/23 02:56:52;;;;;;;4.78;2.40;;;9.00;66.80;;;8.47;52.08;95419.66;5034827;28;20218;-79
2021/10/23 02:59:19;;;;;;;4.00;2.40;;;9.00;66.80;;;8.46;51.87;95413.63;5035457;28;20184;-79
2021/10/23 03:01:46;;;;;;;4.60;2.35;;;9.00;66.80;;;8.48;52.01;95419.53;5035403;28;20208;-79
2021/10/23 03:04:13;;;;;;;2.85;2.08;;;9.00;66.80;;;8.50;51.66;95427.19;5034964;28;20572;-79
2021/10/23 03:06:44;;;;;;;3.88;2.45;;;9.00;66.80;;;8.49;52.21;95428.16;5059815;28;20307;-80
2021/10/23 03:09:13;;;;;;;9.00;2.50;;;9.00;66.90;;;8.52;52.10;95434.84;5026891;28;20380;-79
2021/10/23 03:11:41;;;;;;;3.05;2.00;;;9.00;66.90;;;8.50;52.49;95424.56;5051096;28;20212;-80
2021/10/23 03:14:08;;;;;;;3.97;2.45;;;9.10;67.00;;;8.54;52.13;95430.28;5034422;28;20199;-80
2021/10/23 03:16:36;;;;;;;4.32;2.35;;;9.10;66.90;;;8.53;52.70;95437.31;5035191;28;20246;-79
2021/10/23 03:19:04;;;;;;;5.03;2.83;;;9.10;67.00;;;8.52;52.79;95440.94;5035871;28;20203;-80
2021/10/23 03:21:32;;;;;;;4.60;2.40;;;9.10;67.30;;;8.52;52.50;95432.25;5035733;28;20234;-79
2021/10/23 03:23:59;;;;;;;5.50;2.78;;;9.10;67.20;;;8.51;52.43;95430.59;5036393;28;20306;-81
2021/10/23 03:26:27;;;;;;;3.08;2.40;;;9.20;67.30;;;8.52;52.68;95429.63;5020172;28;20265;-80
2021/10/23 03:28:55;;;;;;;3.70;2.70;;;9.10;67.20;;;8.56;52.54;95444.81;5019215;28;20290;-80
2021/10/23 03:31:23;;;;;;;6.38;3.00;;;9.10;67.20;;;8.55;52.15;95440.56;5035868;28;20212;-80
2021/10/23 03:33:50;;;;;;;3.83;2.42;;;9.10;67.10;;;8.56;52.63;95455.28;5057921;28;20196;-81
2021/10/23 03:36:18;;;;;;;6.03;2.67;;;9.10;67.10;;;8.56;52.63;95447.44;5015301;28;20290;-80
2021/10/23 03:38:46;;;;;;;3.33;2.03;;;9.10;67.30;;;8.60;52.19;95453.16;5047554;28;20180;-79
2021/10/23 03:41:13;;;;;;;5.85;2.72;;;9.10;67.20;;;8.61;51.88;95450.38;5050049;28;20220;-81
2021/10/23 03:43:40;;;;;;;4.70;2.70;;;9.20;67.20;;;8.61;52.23;95455.59;5034700;28;20642;-80
2021/10/23 03:46:08;;;;;;;3.92;2.45;;;9.20;67.20;;;8.63;52.59;95458.06;5051305;28;20212;-81
2021/10/23 03:48:35;;;;;;;4.78;2.28;;;9.20;67.30;;;8.65;52.30;95451.69;5052155;28;20219;-81
2021/10/23 03:51:02;;;;;;;4.90;2.70;;;9.20;67.20;;;8.65;52.70;95467.38;5030610;28;20212;-81
2021/10/23 03:53:30;;;;;;;3.92;2.50;;;9.20;67.30;;;8.67;52.33;95456.75;5014569;28;20671;-80
2021/10/23 03:55:57;;;;;;;5.72;2.38;;;9.30;67.30;;;8.68;52.45;95470.63;5047344;28;20643;-79
2021/10/23 03:58:24;;;;;;;3.75;2.30;;;9.20;67.30;;;8.71;52.34;95472.91;5017588;28;20231;-81
2021/10/23 04:00:51;;;;;;;6.15;2.40;;;9.20;67.20;;;8.72;52.40;95462.28;5035482;28;20571;-81
2021/10/23 04:03:19;;;;;;;3.65;2.45;;;9.20;67.20;;;8.73;52.27;95469.16;5036256;28;20637;-81
2021/10/23 04:05:46;;;;;;;3.42;2.40;;;9.20;67.20;;;8.74;52.29;95468.19;5085047;28;20200;-80
2021/10/23 04:08:13;;;;;;;6.38;2.53;;;9.20;67.20;;;8.70;52.36;95472.09;5068576;28;20196;-80
2021/10/23 04:10:40;;;;;;;3.55;2.20;;;9.20;67.20;;;8.73;52.71;95471.78;5048597;28;20355;-81
2021/10/23 04:13:07;;;;;;;3.03;2.20;;;9.30;67.40;;;8.75;52.18;95469.81;5020093;28;20262;-81
2021/10/23 04:15:34;;;;;;;3.15;2.20;;;9.40;67.40;;;8.77;52.19;95480.09;5036262;28;20609;-80
2021/10/23 04:18:02;;;;;;;4.13;2.67;;;9.30;67.30;;;8.80;51.95;95482.38;5049246;28;20279;-81
2021/10/23 04:20:29;;;;;;;4.50;2.40;;;9.30;67.30;;;8.76;52.13;95473.22;5079709;28;20692;-81
2021/10/23 04:22:57;;;;;;;3.92;2.35;;;9.30;67.30;;;8.77;52.68;95491.38;5019767;28;20242;-81
2021/10/23 04:25:24;;;;;;;5.05;2.80;;;9.30;67.40;;;8.76;52.64;95491.53;5069096;28;20554;-81
2021/10/23 04:27:51;;;;;;;4.25;2.72;;;9.30;67.60;;;8.74;52.81;95486.47;5051663;28;20330;-80
2021/10/23 04:30:18;;;;;;;2.88;2.30;;;9.30;67.50;;;8.73;52.22;95490.06;5018499;28;20638;-81
2021/10/23 04:32:46;;;;;;;2.97;2.30;;;9.30;67.40;;;8.74;52.03;95490.88;5068425;28;20614;-81
2021/10/23 04:35:13;;;;;;;3.13;2.15;;;9.30;67.30;;;8.72;52.46;95491.06;5068971;28;20211;-81
2021/10/23 04:37:41;;;;;;;7.85;2.90;;;9.20;67.30;;;8.68;52.72;95489.75;5051853;28;20215;-81
2021/10/23 04:40:08;;;;;;;5.72;2.63;;;9.30;67.60;;;8.68;52.54;95479.31;5048796;28;20197;-80
2021/10/23 04:42:36;;;;;;;4.35;2.50;;;9.30;67.60;;;8.70;52.86;95493.00;5065248;28;20256;-80
2021/10/23 04:45:05;;;;;;;4.15;2.58;;;9.30;67.60;;;8.67;53.06;95495.97;5065363;28;20185;-81
2021/10/23 04:47:32;;;;;;;5.65;2.60;;;9.30;67.70;;;8.63;53.42;95486.84;5067334;28;20220;-81
2021/10/23 04:49:59;;;;;;;3.72;2.63;;;9.30;67.80;;;8.61;52.85;95494.81;5034821;28;20207;-81
2021/10/23 04:52:26;;;;;;;5.22;2.95;;;9.30;67.60;;;8.61;53.57;95507.91;5035307;28;20726;-81
2021/10/23 04:54:53;;;;;;;5.25;2.95;;;9.20;67.80;;;8.54;53.70;95511.34;5035351;28;20192;-81
2021/10/23 04:57:20;;;;;;;3.03;2.40;;;9.20;67.80;;;8.51;53.51;95512.50;5051265;28;20299;-81
2021/10/23 04:59:47;;;;;;;4.65;2.58;;;9.20;67.80;;;8.46;53.74;95510.38;5035327;28;20204;-81
2021/10/23 05:02:17;;;;;;;5.60;2.60;;;9.20;68.70;;;8.46;53.56;95517.38;5035481;28;20225;-81
2021/10/23 05:04:44;;;;;;;4.28;2.80;;;9.20;67.90;;;8.47;53.36;95534.69;5018963;28;20227;-81
2021/10/23 05:07:11;;;;;;;3.78;2.50;;;9.10;67.90;;;8.47;53.16;95532.06;5034320;28;20215;-82
2021/10/23 05:09:39;;;;;;;4.28;2.72;;;9.10;68.00;;;8.45;53.00;95529.59;5048060;28;20655;-82
2021/10/23 05:12:08;;;;;;;5.90;2.70;;;9.10;68.10;;;8.47;52.87;95539.91;5067762;28;20254;-82
2021/10/23 05:14:35;;;;;;;8.25;3.30;;;9.10;68.20;;;8.49;53.09;95536.19;5068498;28;20192;-81
2021/10/23 05:17:03;;;;;;;8.18;4.50;;;9.10;68.20;;;8.46;53.50;95535.66;5030321;28;20811;-82
2021/10/23 05:19:30;;;;;;;4.72;3.35;;;9.10;68.20;;;8.36;54.10;95532.38;5034966;28;20198;-81
2021/10/23 05:21:57;;;;;;;5.63;2.90;;;9.00;68.30;;;8.28;54.87;95538.44;5051102;28;20220;-80
2021/10/23 05:24:25;;;;;;;4.32;2.83;;;9.00;68.60;;;8.28;55.03;95543.66;5035110;28;20255;-82
2021/10/23 05:26:52;;;;;;;6.50;3.45;;;9.00;68.80;;;8.23;55.60;95545.94;5050999;28;20251;-82
2021/10/23 05:29:19;;;;;;;5.13;2.97;;;9.00;69.90;;;8.20;55.25;95552.28;5051210;28;20191;-81
2021/10/23 05:31:47;;;;;;;6.20;3.78;;;8.90;68.90;;;8.15;54.54;95546.72;5034763;28;20579;-82
2021/10/23 05:34:14;;;;;;;5.50;3.30;;;8.90;68.90;;;8.15;54.91;95558.00;5018424;28;20567;-82
2021/10/23 05:36:42;;;;;;;5.85;3.33;;;8.90;69.00;;;8.11;54.63;95559.28;5034122;28;20710;-81
2021/10/23 05:39:09;;;;;;;4.90;2.80;;;8.80;68.90;;;8.14;54.70;95555.53;5034808;28;20200;-82
2021/10/23 05:41:38;;;;;;;3.83;2.78;;;8.80;69.00;;;8.15;54.84;95560.63;5034563;28;20247;-80
2021/10/23 05:44:05;;;;;;;6.38;2.72;;;8.80;69.00;;;8.13;55.35;95572.19;5067462;28;20216;-80
2021/10/23 05:46:32;;;;;;;4.50;2.90;;;8.80;69.10;;;8.14;55.24;95568.59;5051576;28;20257;-79
2021/10/23 05:48:59;;;;;;;4.30;2.65;;;8.80;69.20;;;8.13;55.00;95583.47;5034157;28;20203;-79
2021/10/23 05:51:27;;;;;;;3.92;2.80;;;8.80;69.20;;;8.14;54.92;95579.06;5034744;28;20682;-80
2021/10/23 05:53:55;;;;;;;4.25;2.83;;;8.70;69.20;;;8.16;55.15;95577.09;5030823;28;20188;-80
2021/10/23 05:56:22;;;;;;;4.57;2.90;;;8.70;69.30;;;8.18;55.19;95583.00;5046014;28;20285;-80
2021/10/23 05:58:52;;;;;;;4.32;2.67;;;8.80;69.40;;;8.18;55.48;95583.00;5034088;28;20196;-80
2021/10/23 06:01:19;;;;;;;5.32;3.50;;;8.70;69.60;;;8.21;55.44;95579.25;5034047;28;20234;-80
2021/10/23 06:03:46;;;;;;;3.72;2.83;;;8.80;69.70;;;8.18;55.74;95586.41;5050229;28;20234;-80
2021/10/23 06:06:16;;;;;;;4.03;2.72;;;8.80;69.80;;;8.29;55.16;95600.19;5018085;28;20212;-80
2021/10/23 06:08:43;;;;;;;5.80;2.90;;;8.80;69.80;;;8.32;55.19;95605.06;5034236;28;20232;-80
2021/10/23 06:11:11;;;;;;;4.93;3.22;;;8.80;69.80;;;8.33;55.38;95615.34;5029093;28;20228;-80
2021/10/23 06:13:38;;;;;;;5.70;3.50;;;8.90;69.90;;;8.36;55.60;95616.03;5032242;28;20246;-80
2021/10/23 06:16:05;;;;;;;3.65;2.95;;;8.80;69.90;;;8.39;55.78;95615.72;5051188;28;20215;-80
2021/10/23 06:18:33;;;;;;;4.22;2.78;;;8.90;70.00;;;8.38;55.85;95614.88;5046590;28;20196;-80
2021/10/23 06:21:01;;;;;;;3.50;2.80;;;8.90;70.10;;;8.43;55.42;95619.63;5014782;28;20216;-80
2021/10/23 06:23:30;;;;;;;5.43;2.83;;;8.90;70.00;;;8.43;56.11;95630.09;5014318;28;20255;-80
2021/10/23 06:25:59;;;;;;;5.15;2.70;;;9.00;70.00;;;8.39;55.75;95611.28;5014970;28;20204;-80
2021/10/23 06:28:27;;;;;;;6.35;3.08;;;9.00;70.00;;;8.46;55.81;95633.22;5033303;28;20212;-80
2021/10/23 06:30:54;;;;;;;5.60;3.22;;;9.00;70.10;;;8.49;55.58;95639.94;5036732;28;20322;-78
2021/10/23 06:33:22;;;;;;;3.38;2.70;;;9.00;70.00;;;8.51;55.43;95645.00;5054372;28;20196;-79
2021/10/23 06:35:50;;;;;;;3.45;2.88;;;9.00;69.90;;;8.51;55.90;95643.22;5054259;28;20669;-79
2021/10/23 06:38:17;;;;;;;7.35;2.92;;;9.10;70.10;;;8.47;55.49;95639.25;5066283;28;20208;-80
2021/10/23 06:40:44;;;;;;;4.32;3.10;;;9.00;70.00;;;8.48;56.85;95662.66;5017928;28;20235;-79
2021/10/23 06:43:12;;;;;;;5.85;3.53;;;9.10;70.20;;;8.47;57.22;95666.25;5034397;28;20196;-79
2021/10/23 06:45:39;;;;;;;3.30;3.00;;;9.10;70.60;;;8.47;56.49;95678.47;5053599;28;20261;-79
2021/10/23 06:48:07;;;;;;;7.30;3.30;;;9.10;70.50;;;8.54;56.41;95674.25;5055100;28;20199;-80
2021/10/23 06:50:34;;;;;;;3.00;2.70;;;9.10;70.50;;;8.61;55.97;95680.47;5037737;28;20238;-80
2021/10/23 06:53:02;;;;;;;4.65;2.92;;;9.10;70.50;;;8.69;55.92;95678.84;5053423;28;20243;-80
2021/10/23 06:55:29;;;;;;;4.47;2.88;;;9.10;70.40;;;8.75;55.38;95681.66;5053693;28;20658;-78
2021/10/23 06:57:56;;;;;;;4.18;2.90;;;9.10;70.40;;;8.83;55.78;95691.31;5050546;28;20217;-79
2021/10/23 07:00:24;;;;;;;5.05;3.08;;;9.20;70.50;;;8.90;55.91;95697.53;5068276;28;20242;-79
2021/10/23 07:02:52;;;;;;;6.53;3.10;;;9.20;70.70;;;8.97;55.71;95693.28;5034232;28;20215;-79
2021/10/23 07:05:21;;;;;;;5.38;2.95;;;9.30;70.70;;;9.03;55.86;95696.22;5053388;28;20243;-79
2021/10/23 07:07:48;;;;;;;4.82;3.17;;;9.40;70.70;;;9.04;55.73;95713.56;5037152;28;20261;-79
2021/10/23 07:10:15;;;;;;;5.57;3.15;;;9.40;70.40;;;9.02;55.83;95711.13;5037142;28;20701;-80
2021/10/23 07:12:46;;;;;;;6.53;2.97;;;9.50;70.50;;;9.05;55.58;95710.00;5058691;28;20264;-79
2021/10/23 07:15:14;;;;;;;5.07;3.75;;;9.40;70.30;;;9.11;55.45;95717.19;5061801;28;20210;-79
2021/10/23 07:17:42;;;;;;;4.53;2.97;;;9.50;70.40;;;9.22;55.64;95719.47;5036424;28;20228;-79
2021/10/23 07:20:11;;;;;;;7.15;3.35;;;9.50;70.60;;;9.34;56.26;95717.34;5046741;28;20201;-78
2021/10/23 07:22:38;;;;;;;5.07;2.90;;;9.60;70.90;;;9.44;55.88;95718.00;5036077;28;20215;-79
2021/10/23 07:25:06;;;;;;;4.80;3.22;;;9.60;70.80;;;9.55;55.60;95716.03;5052644;28;20298;-78
2021/10/23 07:27:34;;;;;;;5.97;3.30;;;9.70;71.00;;;9.63;55.68;95725.69;5020241;28;20220;-79
2021/10/23 07:30:08;;;;;;;3.80;2.90;;;9.80;70.90;;;9.78;55.32;95730.06;5036455;28;20196;-79
2021/10/23 07:32:38;;;;;;;3.72;2.90;;;9.90;71.00;;;9.91;55.21;95726.09;5032809;28;20730;-79
2021/10/23 07:35:07;;;;;;;5.13;2.70;;;10.00;69.70;;;9.97;55.09;95722.81;5036456;28;20204;-80
2021/10/23 07:37:34;;;;;;;4.82;2.20;;;10.10;69.60;;;10.05;54.51;95737.72;5019640;28;20303;-79
2021/10/23 07:40:05;;;;;;;6.38;2.60;;;10.10;69.10;;;10.03;54.53;95743.16;5052495;28;20618;-79
2021/10/23 07:42:32;;;;;;;6.60;2.65;;;10.20;68.90;;;10.01;54.49;95739.03;5036773;28;20216;-80
2021/10/23 07:45:00;;;;;;;4.70;2.20;;;10.20;68.60;;;9.92;54.36;95740.84;5036795;28;20227;-78
2021/10/23 07:47:28;;;;;;;3.22;1.88;;;10.30;69.40;;;9.96;54.38;95749.19;5035684;28;20592;-79
2021/10/23 07:49:58;;;;;;;4.75;2.20;;;10.30;68.30;;;9.98;54.16;95740.19;5052299;28;20184;-79
2021/10/23 07:52:25;;;;;;;3.67;2.03;;;10.30;68.20;;;10.06;54.05;95747.22;5053360;28;20223;-79
2021/10/23 07:54:53;;;;;;;3.60;1.90;;;10.30;68.40;;;10.12;53.95;95751.81;5020042;28;20206;-80
2021/10/23 07:57:21;;;;;;;4.30;1.70;;;10.40;68.10;;;10.14;53.83;95744.56;5033997;28;20212;-79
2021/10/23 07:59:48;;;;;;;3.60;1.92;;;10.40;68.10;;;10.13;53.13;95758.69;5066221;28;20556;-78
2021/10/23 08:02:15;;;;;;;3.28;1.60;;;10.40;67.60;;;10.06;53.36;95761.13;5017523;28;20228;-80
2021/10/23 08:04:42;;;;;;;4.93;1.50;;;10.40;67.40;;;10.02;53.02;95765.09;5036301;28;20231;-79
2021/10/23 08:07:09;;;;;;;3.45;1.35;;;10.40;67.20;;;9.99;52.74;95772.47;5032311;28;20591;-79
2021/10/23 08:09:39;;;;;;;2.40;1.45;;;10.50;67.20;;;9.98;52.58;95757.72;5032935;28;20662;-79
2021/10/23 08:12:08;;;;;;;3.63;1.70;;;10.40;66.90;;;9.98;52.61;95755.91;5035572;28;20285;-79
2021/10/23 08:14:38;;;;;;;3.83;1.73;;;10.40;66.80;;;9.98;52.48;95753.28;5052381;28;20200;-79
2021/10/23 08:17:05;;;;;;;3.60;1.75;;;10.40;66.80;;;9.99;52.47;95756.75;5053748;28;20219;-79
2021/10/23 08:19:34;;;;;;;5.47;1.83;;;10.40;66.80;;;9.99;52.25;95756.75;5048314;28;20193;-79
2021/10/23 08:22:02;;;;;;;3.72;1.50;;;10.40;66.60;;;10.00;52.07;95753.94;5032525;28;20256;-80
2021/10/23 08:24:29;;;;;;;4.97;1.80;;;10.30;66.50;;;10.03;51.85;95758.88;5042685;28;20661;-79
2021/10/23 08:26:56;;;;;;;2.92;1.55;;;10.30;66.50;;;10.11;51.26;95773.75;5035746;28;20232;-79
2021/10/23 08:29:24;;;;;;;5.63;1.77;;;10.40;66.40;;;10.19;51.31;95775.53;5052252;28;20226;-79
2021/10/23 08:31:51;;;;;;;2.85;1.67;;;10.40;66.30;;;10.23;50.58;95774.22;5019310;28;20743;-79
2021/10/23 08:34:18;;;;;;;3.97;1.63;;;10.40;66.10;;;10.27;50.80;95765.03;5034242;28;20306;-80
2021/10/23 08:36:45;;;;;;;3.20;1.77;;;10.50;66.10;;;10.29;50.66;95773.53;5048545;28;20254;-80
2021/10/23 08:39:15;;;;;;;3.90;1.58;;;10.50;66.10;;;10.34;50.74;95759.91;5035754;28;20226;-81
2021/10/23 08:41:43;;;;;;;2.90;1.60;;;10.60;66.20;;;10.48;50.95;95769.72;5034413;28;20693;-79
2021/10/23 08:44:14;;;;;;;3.60;1.55;;;10.60;66.20;;;10.62;51.03;95767.38;5035446;28;20706;-79
2021/10/23 08:46:41;;;;;;;5.10;1.70;;;10.70;66.30;;;10.64;50.28;95762.78;5015973;28;20244;-82
2021/10/23 08:49:09;;;;;;;4.07;1.80;;;10.80;66.10;;;10.72;49.77;95774.06;5034427;28;20297;-80
2021/10/23 08:51:36;;;;;;;5.22;1.95;;;10.90;65.70;;;10.82;50.28;95778.28;5018555;28;20254;-79
2021/10/23 08:54:04;;;;;;;8.73;1.95;;;10.90;66.00;;;10.92;50.51;95780.69;5051535;28;20269;-81
2021/10/23 08:56:34;;;;;;;3.80;1.45;;;11.10;66.10;;;10.97;49.53;95773.13;5034830;28;20216;-79
2021/10/23 08:59:01;;;;;;;5.43;1.52;;;11.00;65.60;;;10.93;49.35;95769.22;5034537;28;20287;-79
2021/10/23 09:01:29;;;;;;;9.07;1.90;;;11.20;65.40;;;10.90;49.33;95773.00;5031325;28;20335;-79
2021/10/23 09:03:56;;;;;;;41.33;4.95;;;11.30;65.30;;;10.89;49.78;95774.00;5015613;28;20188;-79
2021/10/23 09:06:40;;;;;;;4.25;1.42;;;11.20;65.20;;;10.93;49.24;95785.75;5035158;28;20223;-80
2021/10/23 09:09:11;;;;;;;5.32;1.73;;;11.30;65.00;;;10.95;48.17;95788.22;5035162;28;20239;-79
2021/10/23 09:11:41;;;;;;;6.43;1.73;;;11.20;64.40;;;10.98;48.26;95786.06;5034664;28;20215;-79
2021/10/23 09:14:29;;;;;;;5.45;1.60;;;11.20;64.30;;;11.02;48.36;95778.66;5035256;28;20245;-79
2021/10/23 09:17:04;;;;;;;4.10;1.52;;;11.30;65.40;;;11.13;48.78;95787.94;5050895;28;20220;-80
2021/10/23 09:19:35;;;;;;;262.27;24.45;;;11.30;64.80;;;11.29;48.99;95800.16;5067189;28;20198;-79
2021/10/23 09:22:05;;;;;;;5.32;2.25;;;11.40;65.10;;;11.40;48.25;95777.94;5050325;28;20302;-80
2021/10/23 09:24:33;;;;;;;3.25;1.58;;;11.40;64.90;;;11.64;48.83;95776.94;5028810;28;20291;-80
2021/10/23 09:27:16;;;;;;;5.95;2.22;;;11.50;65.30;;;11.80;48.34;95768.09;4998759;28;20301;-81
2021/10/23 09:29:44;;;;;;;3.45;1.63;;;11.60;64.80;;;11.94;47.81;95783.06;5023745;28;20235;-80
2021/10/23 09:32:15;;;;;;;8.35;2.50;;;11.80;64.80;;;11.98;46.71;95765.16;5049189;28;20302;-80
2021/10/23 09:34:42;;;;;;;13.13;3.00;;;11.90;64.20;;;12.04;46.99;95776.78;5033804;28;20211;-80
2021/10/23 09:37:09;;;;;;;4.70;2.38;;;12.00;64.10;;;12.06;45.36;95769.50;5034759;28;20242;-79
2021/10/23 09:39:40;;;;;;;18.33;2.42;;;12.10;63.40;;;12.12;46.39;95782.78;5018968;28;20219;-80
2021/10/23 09:42:19;;;;;;;4.72;1.80;;;12.10;63.70;;;12.09;45.60;95779.69;5066115;28;20212;-80
2021/10/23 09:47:43;;;;;;;4.07;1.70;;;12.20;63.30;;;12.16;46.81;95791.91;5034586;28;20223;-79
2021/10/23 09:50:20;;;;;;;5.03;1.80;;;12.30;63.80;;;12.28;46.69;95794.09;5066129;28;20204;-79
2021/10/23 09:53:09;;;;;;;2.97;1.40;;;12.30;63.50;;;12.39;47.31;95790.22;5018001;28;20227;-80
2021/10/23 09:55:52;;;;;;;3.45;1.60;;;12.40;64.00;;;12.52;47.67;95781.69;5033342;28;20204;-81
2021/10/23 09:58:24;;;;;;;6.25;2.00;;;12.50;63.90;;;12.60;47.26;95790.31;5017610;28;20747;-79
2021/10/23 10:00:54;;;;;;;4.85;1.65;;;12.60;63.80;;;12.67;47.01;95795.66;5033495;28;20202;-80
2021/10/23 10:03:25;;;;;;;2.42;1.33;;;12.70;63.60;;;12.69;46.71;95800.75;5034342;28;20210;-80
2021/10/23 10:05:58;;;;;;;3.85;1.50;;;12.80;63.20;;;12.62;46.61;95795.38;5037293;28;20280;-80
2021/10/23 10:08:27;;;;;;;3.42;2.15;;;12.80;63.10;;;12.55;46.83;95803.19;5021820;28;20187;-80
2021/10/23 10:10:57;;;;;;;5.95;1.73;;;12.80;63.10;;;12.50;46.79;95808.19;5035030;28;20196;-79
2021/10/23 10:13:26;;;;;;;3.88;1.55;;;12.90;63.10;;;12.44;46.91;95793.13;5036917;28;20683;-80
2021/10/23 10:16:04;;;;;;;4.50;1.90;;;12.80;63.00;;;12.40;46.46;95795.31;5071442;28;20203;-79
2021/10/23 10:18:33;;;;;;;3.03;1.40;;;12.80;63.60;;;12.44;46.82;95806.28;5034597;28;20723;-80
2021/10/23 10:21:01;;;;;;;4.55;1.73;;;12.80;63.30;;;12.49;46.31;95802.09;5029263;28;20312;-79
2021/10/23 10:23:34;;;;;;;4.70;1.83;;;12.70;63.00;;;12.55;45.94;95799.72;5054663;28;20199;-80
2021/10/23 10:26:20;;;;;;;2.17;1.48;;;12.70;62.80;;;12.48;46.43;95804.91;5037937;28;20672;-80
2021/10/23 10:29:09;;;;;;;3.83;1.60;;;12.80;63.00;;;12.45;46.64;95803.47;5053258;28;20223;-80
2021/10/23 10:32:18;;;;;;;2.15;1.30;;;12.80;63.10;;;12.42;46.91;95803.81;5053982;28;20302;-79
2021/10/23 10:43:06;;;;;;;5.80;1.80;;;12.70;63.10;;;12.07;47.44;95794.81;5055133;28;20227;-79
2021/10/23 10:45:43;;;;;;;4.93;1.60;;;12.60;63.00;;;12.03;47.64;95801.44;5017598;28;20220;-78
2021/10/23 10:48:23;;;;;;;4.20;1.60;;;12.60;63.20;;;11.96;47.38;95803.91;5043140;28;20206;-78